createdAt,value
2023-01-06T00:01:13.436Z,97313.00
2023-01-06T00:03:41.311Z,97312.19
2023-01-06T00:06:12.231Z,97314.00
2023-01-06T00:08:40.501Z,97313.00
2023-01-06T00:11:08.880Z,97310.25
2023-01-06T00:13:36.525Z,97307.50
2023-01-06T00:16:05.685Z,97298.69
2023-01-06T00:18:34.688Z,97301.13
2023-01-06T00:21:02.918Z,97295.78
2023-01-06T00:23:30.720Z,97292.19
2023-01-06T00:25:58.289Z,97285.00
2023-01-06T00:28:25.902Z,97287.47
2023-01-06T00:30:53.859Z,97285.66
2023-01-06T00:33:21.382Z,97284.53
2023-01-06T00:35:50.203Z,97279.31
2023-01-06T00:38:18.022Z,97281.09
2023-01-06T00:40:45.553Z,97274.91
2023-01-06T00:43:13.032Z,97278.16
2023-01-06T00:45:40.497Z,97268.53
2023-01-06T00:48:07.972Z,97272.00
2023-01-06T00:50:35.467Z,97269.38
2023-01-06T00:53:04.275Z,97274.59
2023-01-06T00:55:31.770Z,97267.72
2023-01-06T00:57:59.298Z,97266.78
2023-01-06T01:00:26.817Z,97264.97
2023-01-06T01:02:54.366Z,97271.81
2023-01-06T01:05:21.881Z,97268.22
2023-01-06T01:07:49.361Z,97269.19
2023-01-06T01:10:18.250Z,97268.53
2023-01-06T01:12:45.764Z,97272.94
2023-01-06T01:15:13.274Z,97266.13
2023-01-06T01:17:41.047Z,97264.81
2023-01-06T01:20:10.067Z,97266.09
2023-01-06T01:22:37.571Z,97258.63
2023-01-06T01:25:05.577Z,97263.00
2023-01-06T01:27:34.419Z,97260.56
2023-01-06T01:30:01.918Z,97262.19
2023-01-06T01:32:29.438Z,97261.22
2023-01-06T01:34:56.961Z,97261.22
2023-01-06T01:37:24.500Z,97263.84
2023-01-06T01:39:52.012Z,97265.44
2023-01-06T01:42:21.897Z,97263.50
2023-01-06T01:45:05.933Z,97271.16
2023-01-06T01:47:44.327Z,97274.25
2023-01-06T01:50:20.132Z,97263.66
2023-01-06T01:52:50.486Z,97274.09
2023-01-06T01:55:19.812Z,97267.91
2023-01-06T01:57:51.495Z,97264.47
2023-01-06T02:00:21.130Z,97259.25
2023-01-06T02:02:49.167Z,97249.47
2023-01-06T02:05:27.234Z,97259.59
2023-01-06T02:07:57.357Z,97256.00
2023-01-06T02:10:25.887Z,97238.41
2023-01-06T02:12:55.807Z,97241.00
2023-01-06T02:15:28.057Z,97237.41
2023-01-06T02:18:27.074Z,97230.25
2023-01-06T02:21:10.580Z,97224.22
2023-01-06T02:23:57.087Z,97233.84
2023-01-06T02:27:00.541Z,97224.22
2023-01-06T02:29:44.802Z,97228.31
2023-01-06T02:32:25.461Z,97228.31
2023-01-06T02:35:10.571Z,97223.09
2023-01-06T02:37:49.176Z,97223.09
2023-01-06T02:40:30.065Z,97214.47
2023-01-06T02:43:10.844Z,97215.44
2023-01-06T02:45:49.773Z,97223.09
2023-01-06T02:48:25.876Z,97209.91
2023-01-06T02:51:01.985Z,97204.69
2023-01-06T02:53:40.657Z,97210.72
2023-01-06T02:56:08.591Z,97214.59
2023-01-06T02:58:45.386Z,97214.94
2023-01-06T03:01:17.853Z,97207.13
2023-01-06T03:03:49.245Z,97208.91
2023-01-06T03:06:19.501Z,97206.47
2023-01-06T03:08:49.767Z,97203.69
2023-01-06T03:11:17.707Z,97200.91
2023-01-06T03:13:49.900Z,97205.50
2023-01-06T03:16:17.802Z,97197.03
2023-01-06T03:18:48.687Z,97199.78
2023-01-06T03:21:19.962Z,97204.00
2023-01-06T03:23:48.281Z,97199.63
2023-01-06T03:26:16.301Z,97205.66
2023-01-06T03:28:43.774Z,97205.31
2023-01-06T03:31:16.202Z,97202.56
2023-01-06T03:33:57.672Z,97200.75
2023-01-06T03:36:36.000Z,97205.00
2023-01-06T03:39:12.433Z,97205.81
2023-01-06T03:42:04.118Z,97210.06
2023-01-06T03:44:40.452Z,97200.28
2023-01-06T03:47:16.213Z,97201.94
2023-01-06T03:49:53.683Z,97209.41
2023-01-06T03:52:28.756Z,97206.00
2023-01-06T03:55:01.539Z,97209.25
2023-01-06T03:57:32.145Z,97207.16
2023-01-06T04:00:03.719Z,97205.50
2023-01-06T04:02:31.795Z,97209.09
2023-01-06T04:05:10.930Z,97202.09
2023-01-06T04:07:39.338Z,97206.31
2023-01-06T04:10:07.854Z,97202.91
2023-01-06T04:12:40.273Z,97196.72
2023-01-06T04:15:10.462Z,97194.91
2023-01-06T04:17:38.301Z,97193.44
2023-01-06T04:20:08.931Z,97187.59
2023-01-06T04:22:36.818Z,97189.53
2023-01-06T04:25:05.393Z,97187.09
2023-01-06T04:27:32.926Z,97187.75
2023-01-06T04:30:00.484Z,97191.16
2023-01-06T04:32:28.002Z,97187.59
2023-01-06T04:34:55.514Z,97185.63
2023-01-06T04:37:24.551Z,97178.78
2023-01-06T04:39:52.033Z,97175.34
2023-01-06T04:42:19.518Z,97171.94
2023-01-06T04:44:47.037Z,97165.09
2023-01-06T04:47:14.586Z,97164.44
2023-01-06T04:49:42.496Z,97154.00
2023-01-06T04:52:10.095Z,97155.00
2023-01-06T04:54:38.918Z,97147.47
2023-01-06T04:57:06.401Z,97153.16
2023-01-06T04:59:33.878Z,97147.50
2023-01-06T05:02:01.394Z,97150.09
2023-01-06T05:04:34.215Z,97155.47
2023-01-06T05:07:04.582Z,97154.66
2023-01-06T05:09:32.062Z,97161.50
2023-01-06T05:12:01.022Z,97159.88
2023-01-06T05:14:28.505Z,97151.41
2023-01-06T05:16:56.019Z,97148.81
2023-01-06T05:19:23.676Z,97150.25
2023-01-06T05:21:51.151Z,97154.31
2023-01-06T05:24:18.662Z,97154.97
2023-01-06T05:26:46.169Z,97149.09
2023-01-06T05:29:17.820Z,97149.25
2023-01-06T05:31:45.389Z,97141.63
2023-01-06T05:34:13.026Z,97138.53
2023-01-06T05:36:40.487Z,97137.72
2023-01-06T05:39:07.943Z,97137.38
2023-01-06T05:41:35.437Z,97139.03
2023-01-06T05:44:02.927Z,97142.28
2023-01-06T05:46:31.747Z,97139.84
2023-01-06T05:49:02.092Z,97141.78
2023-01-06T05:51:30.061Z,97142.94
2023-01-06T05:53:57.691Z,97143.25
2023-01-06T05:56:25.318Z,97147.81
2023-01-06T05:58:54.637Z,97145.19
2023-01-06T06:01:24.631Z,97142.44
2023-01-06T06:03:55.088Z,97146.84
2023-01-06T06:06:24.726Z,97153.03
2023-01-06T06:08:52.288Z,97148.81
2023-01-06T06:11:20.773Z,97147.50
2023-01-06T06:13:49.387Z,97151.41
2023-01-06T06:16:19.043Z,97151.75
2023-01-06T06:18:50.297Z,97152.06
2023-01-06T06:21:20.726Z,97155.81
2023-01-06T06:23:48.665Z,97159.22
2023-01-06T06:26:16.338Z,97160.88
2023-01-06T06:28:43.804Z,97156.47
2023-01-06T06:31:13.645Z,97154.00
2023-01-06T06:33:41.862Z,97157.63
2023-01-06T06:36:12.033Z,97162.03
2023-01-06T06:38:40.863Z,97157.63
2023-01-06T06:41:08.446Z,97163.16
2023-01-06T06:43:35.996Z,97161.53
2023-01-06T06:46:03.598Z,97162.66
2023-01-06T06:48:31.171Z,97169.81
2023-01-06T06:50:59.165Z,97163.97
2023-01-06T06:53:27.210Z,97178.63
2023-01-06T06:55:56.886Z,97179.75
2023-01-06T06:58:24.723Z,97174.88
2023-01-06T07:00:52.226Z,97176.81
2023-01-06T07:03:20.434Z,97170.47
2023-01-06T07:05:49.971Z,97169.34
2023-01-06T07:08:17.609Z,97172.44
2023-01-06T07:10:45.074Z,97159.88
2023-01-06T07:13:13.960Z,97162.16
2023-01-06T07:15:41.476Z,97164.44
2023-01-06T07:18:09.158Z,97164.75
2023-01-06T07:20:38.187Z,97164.75
2023-01-06T07:23:06.162Z,97168.66
2023-01-06T07:25:33.779Z,97173.50
2023-01-06T07:28:05.423Z,97172.19
2023-01-06T07:30:34.970Z,97182.28
2023-01-06T07:33:02.512Z,97180.00
2023-01-06T07:35:30.433Z,97189.09
2023-01-06T07:38:03.403Z,97198.19
2023-01-06T07:40:30.879Z,97195.91
2023-01-06T07:42:58.427Z,97188.72
2023-01-06T07:45:25.894Z,97186.59
2023-01-06T07:47:56.859Z,97192.28
2023-01-06T07:50:26.326Z,97185.44
2023-01-06T07:52:54.478Z,97184.75
2023-01-06T07:55:21.987Z,97188.50
2023-01-06T07:57:49.473Z,97194.50
2023-01-06T08:00:17.173Z,97183.31
2023-01-06T08:02:44.741Z,97178.41
2023-01-06T08:05:13.922Z,97183.91
2023-01-06T08:07:41.395Z,97186.19
2023-01-06T08:10:09.537Z,97187.13
2023-01-06T08:12:37.185Z,97192.19
2023-01-06T08:15:05.688Z,97190.25
2023-01-06T08:17:33.215Z,97192.53
2023-01-06T08:20:00.716Z,97192.38
2023-01-06T08:22:29.570Z,97193.69
2023-01-06T08:24:57.130Z,97196.16
2023-01-06T08:27:24.672Z,97196.16
2023-01-06T08:29:54.763Z,97188.03
2023-01-06T08:32:22.649Z,97189.34
2023-01-06T08:34:50.147Z,97191.81
2023-01-06T08:37:17.898Z,97206.28
2023-01-06T08:39:47.069Z,97215.22
2023-01-06T08:42:14.645Z,97219.66
2023-01-06T08:44:42.595Z,97223.25
2023-01-06T08:49:52.278Z,97232.28
2023-01-06T09:22:42.922Z,97266.38
2023-01-06T09:25:31.103Z,97274.88
2023-01-06T09:27:59.001Z,97275.84
2023-01-06T09:30:26.950Z,97283.34
2023-01-06T09:32:56.521Z,97286.94
2023-01-06T09:35:24.641Z,97278.13
2023-01-06T09:37:52.491Z,97290.50
2023-01-06T09:40:25.087Z,97298.16
2023-01-06T09:43:05.842Z,97302.25
2023-01-06T09:45:40.117Z,97300.44
2023-01-06T09:48:17.946Z,97306.31
2023-01-06T09:51:05.645Z,97312.97
2023-01-06T09:57:42.881Z,97300.31
2023-01-06T10:04:25.131Z,97301.94
2023-01-06T10:07:02.333Z,97297.69
2023-01-06T10:09:47.099Z,97297.69
2023-01-06T10:13:21.085Z,97298.66
2023-01-06T10:15:54.422Z,97289.06
2023-01-06T10:18:31.945Z,97282.06
2023-01-06T10:21:10.891Z,97274.09
2023-01-06T10:23:56.485Z,97266.09
2023-01-06T10:26:30.747Z,97265.78
2023-01-06T10:29:03.601Z,97269.03
2023-01-06T10:31:36.305Z,97273.94
2023-01-06T10:34:05.884Z,97263.81
2023-01-06T10:39:53.033Z,97265.47
2023-01-06T10:49:50.999Z,97252.59
2023-01-06T10:56:55.239Z,97225.88
2023-01-06T11:35:50.081Z,97211.00
2023-01-06T11:38:20.934Z,97211.00
2023-01-06T11:40:50.506Z,97212.63
2023-01-06T11:43:23.432Z,97214.91
2023-01-06T11:49:08.165Z,97220.13
2023-01-06T11:51:51.261Z,97229.56
2023-01-06T11:54:27.053Z,97223.53
2023-01-06T11:57:04.344Z,97216.72
2023-01-06T11:59:45.752Z,97220.28
2023-01-06T12:02:22.772Z,97221.09
2023-01-06T12:05:12.596Z,97204.78
2023-01-06T12:08:12.659Z,97210.84
2023-01-06T12:11:08.361Z,97210.66
2023-01-06T12:14:13.116Z,97208.69
2023-01-06T12:16:57.001Z,97188.81
2023-01-06T12:19:38.078Z,97200.22
2023-01-06T12:22:06.919Z,97205.94
2023-01-06T12:24:47.268Z,97197.09
2023-01-06T12:27:25.065Z,97207.53
2023-01-06T12:29:55.160Z,97213.59
2023-01-06T12:32:29.085Z,97200.38
2023-01-06T12:35:04.271Z,97202.66
2023-01-06T12:37:38.029Z,97208.53
2023-01-06T12:40:20.063Z,97200.50
2023-01-06T12:42:54.456Z,97198.75
2023-01-06T12:45:36.342Z,97200.19
2023-01-06T12:50:42.501Z,97193.00
2023-01-06T12:53:20.522Z,97198.22
2023-01-06T12:56:44.776Z,97181.56
2023-01-06T12:59:36.124Z,97197.88
2023-01-06T13:02:20.376Z,97192.19
2023-01-06T13:05:00.941Z,97187.13
2023-01-06T13:07:40.846Z,97183.06
2023-01-06T13:10:19.484Z,97178.97
2023-01-06T13:13:22.842Z,97180.78
2023-01-06T13:15:51.201Z,97180.63
2023-01-06T13:18:24.855Z,97177.53
2023-01-06T13:20:58.172Z,97182.09
2023-01-06T13:23:39.210Z,97180.34
2023-01-06T13:26:27.429Z,97171.50
2023-01-06T13:29:07.774Z,97178.38
2023-01-06T13:31:56.320Z,97171.16
2023-01-06T13:34:47.731Z,97171.81
2023-01-06T13:37:28.962Z,97169.19
2023-01-06T13:39:59.667Z,97160.41
2023-01-06T13:42:35.796Z,97168.06
2023-01-06T13:45:08.967Z,97168.06
2023-01-06T13:47:37.719Z,97169.69
2023-01-06T13:50:06.515Z,97183.38
2023-01-06T13:52:35.400Z,97183.22
2023-01-06T13:55:23.094Z,97177.00
2023-01-06T13:57:50.811Z,97169.81
2023-01-06T14:00:24.813Z,97186.13
2023-01-06T14:03:14.116Z,97174.06
2023-01-06T14:05:56.100Z,97179.09
2023-01-06T14:08:27.241Z,97174.06
2023-01-06T14:11:02.140Z,97169.81
2023-01-06T14:13:34.366Z,97173.22
2023-01-06T14:16:07.485Z,97173.88
2023-01-06T14:18:39.716Z,97177.28
2023-01-06T14:21:17.439Z,97177.13
2023-01-06T14:23:58.264Z,97183.81
2023-01-06T14:27:02.610Z,97187.25
2023-01-06T14:30:04.304Z,97181.84
2023-01-06T14:33:02.852Z,97176.63
2023-01-06T14:35:34.051Z,97178.59
2023-01-06T14:38:04.936Z,97184.00
2023-01-06T14:40:36.337Z,97179.59
2023-01-06T14:43:20.458Z,97184.66
2023-01-06T14:45:49.552Z,97179.22
2023-01-06T14:48:22.151Z,97184.47
2023-01-06T14:50:55.959Z,97182.84
2023-01-06T14:53:30.469Z,97186.25
2023-01-06T14:55:59.762Z,97185.28
2023-01-06T14:58:32.069Z,97180.06
2023-01-06T15:01:00.647Z,97186.09
2023-01-06T15:03:30.596Z,97189.50
2023-01-06T15:06:19.264Z,97196.19
2023-01-06T15:08:46.863Z,97195.38
2023-01-06T15:11:23.581Z,97196.19
2023-01-06T15:13:51.328Z,97191.97
2023-01-06T15:16:24.076Z,97193.13
2023-01-06T15:18:54.918Z,97197.19
2023-01-06T15:21:23.724Z,97194.91
2023-01-06T15:23:53.095Z,97208.13
2023-01-06T15:26:24.619Z,97207.31
2023-01-06T15:29:02.941Z,97214.16
2023-01-06T15:31:33.904Z,97203.72
2023-01-06T15:34:06.574Z,97208.94
2023-01-06T15:36:34.447Z,97206.97
2023-01-06T15:39:04.829Z,97209.09
2023-01-06T15:41:34.171Z,97204.88
2023-01-06T15:44:03.522Z,97219.72
2023-01-06T15:46:40.417Z,97214.47
2023-01-06T15:49:23.846Z,97225.75
2023-01-06T15:51:57.454Z,97223.31
2023-01-06T15:54:26.861Z,97222.31
2023-01-06T15:56:57.050Z,97223.31
2023-01-06T15:59:28.301Z,97228.69
2023-01-06T16:01:56.850Z,97227.72
2023-01-06T16:04:25.941Z,97232.75
2023-01-06T16:06:53.514Z,97232.59
2023-01-06T16:09:35.768Z,97228.53
2023-01-06T16:12:17.526Z,97233.75
2023-01-06T16:14:47.078Z,97238.97
2023-01-06T16:17:20.639Z,97235.38
2023-01-06T16:19:51.260Z,97245.16
2023-01-06T16:22:37.285Z,97239.94
2023-01-06T16:25:09.212Z,97239.13
2023-01-06T16:27:36.824Z,97246.16
2023-01-06T16:30:22.044Z,97241.59
2023-01-06T16:32:52.519Z,97243.38
2023-01-06T16:35:23.339Z,97247.78
2023-01-06T16:37:51.738Z,97253.00
2023-01-06T16:40:21.559Z,97245.16
2023-01-06T16:42:50.963Z,97251.22
2023-01-06T16:45:23.810Z,97253.63
2023-01-06T16:47:52.011Z,97248.41
2023-01-06T16:50:24.416Z,97249.41
2023-01-06T16:53:00.206Z,97251.03
2023-01-06T16:55:28.017Z,97253.63
2023-01-06T16:57:56.899Z,97252.84
2023-01-06T17:00:24.753Z,97252.84
2023-01-06T17:02:52.583Z,97252.03
2023-01-06T17:05:25.056Z,97254.78
2023-01-06T17:07:54.418Z,97262.63
2023-01-06T17:10:23.987Z,97256.59
2023-01-06T17:13:13.510Z,97251.38
2023-01-06T17:15:41.665Z,97246.97
2023-01-06T17:18:24.738Z,97249.56
2023-01-06T17:20:58.942Z,97242.53
2023-01-06T17:23:26.498Z,97238.31
2023-01-06T17:25:59.699Z,97235.72
2023-01-06T17:28:27.239Z,97236.72
2023-01-06T17:30:54.826Z,97249.75
2023-01-06T17:33:22.326Z,97233.44
2023-01-06T17:35:55.776Z,97247.31
2023-01-06T17:38:25.251Z,97236.06
2023-01-06T17:40:54.775Z,97234.25
2023-01-06T17:43:26.129Z,97236.06
2023-01-06T17:45:53.782Z,97239.63
2023-01-06T17:48:22.123Z,97241.59
2023-01-06T17:50:52.211Z,97242.59
2023-01-06T17:53:44.140Z,97239.97
2023-01-06T17:56:13.017Z,97247.00
2023-01-06T17:58:42.914Z,97242.91
2023-01-06T18:01:14.844Z,97238.69
2023-01-06T18:03:44.134Z,97238.69
2023-01-06T18:06:20.820Z,97247.31
2023-01-06T18:08:51.034Z,97245.06
2023-01-06T18:11:34.287Z,97251.91
2023-01-06T18:14:15.593Z,97244.22
2023-01-06T18:16:45.507Z,97244.88
2023-01-06T18:19:26.707Z,97247.47
2023-01-06T18:21:54.851Z,97248.47
2023-01-06T18:24:31.413Z,97251.75
2023-01-06T18:27:00.956Z,97261.19
2023-01-06T18:29:36.368Z,97258.75
2023-01-06T18:32:26.109Z,97257.13
2023-01-06T18:34:54.736Z,97260.53
2023-01-06T18:37:25.250Z,97258.25
2023-01-06T18:39:57.360Z,97267.91
2023-01-06T18:42:27.788Z,97265.94
2023-01-06T18:45:02.424Z,97259.06
2023-01-06T18:47:32.258Z,97266.09
2023-01-06T18:50:15.088Z,97266.91
2023-01-06T18:52:46.196Z,97264.47
2023-01-06T18:55:22.999Z,97274.91
2023-01-06T18:58:01.905Z,97279.13
2023-01-06T19:00:41.613Z,97271.66
2023-01-06T19:03:29.822Z,97272.78
2023-01-06T19:06:07.148Z,97271.31
2023-01-06T19:08:36.306Z,97269.50
2023-01-06T19:11:12.808Z,97274.13
2023-01-06T19:13:40.358Z,97270.00
2023-01-06T19:16:25.532Z,97264.81
2023-01-06T19:18:54.703Z,97259.59
2023-01-06T19:21:23.677Z,97264.00
2023-01-06T19:23:51.192Z,97263.84
2023-01-06T19:26:31.527Z,97265.78
2023-01-06T19:29:02.169Z,97262.19
2023-01-06T19:31:30.549Z,97249.97
2023-01-06T19:33:59.947Z,97254.38
2023-01-06T19:36:46.931Z,97252.75
2023-01-06T19:39:23.643Z,97252.75
2023-01-06T19:41:55.134Z,97252.75
2023-01-06T19:44:30.091Z,97252.91
2023-01-06T19:46:57.610Z,97247.84
2023-01-06T19:49:27.616Z,97246.22
2023-01-06T19:51:55.845Z,97256.16
2023-01-06T19:54:27.163Z,97252.44
2023-01-06T19:56:57.148Z,97251.13
2023-01-06T19:59:29.147Z,97246.25
2023-01-06T20:02:04.184Z,97249.69
2023-01-06T20:04:31.821Z,97244.63
2023-01-06T20:06:59.353Z,97258.66
2023-01-06T20:09:26.831Z,97256.34
2023-01-06T20:11:56.139Z,97254.75
2023-01-06T20:14:23.859Z,97259.47
2023-01-06T20:16:51.402Z,97256.31
2023-01-06T20:19:21.330Z,97261.22
2023-01-06T20:21:48.813Z,97264.16
2023-01-06T20:24:16.355Z,97261.56
2023-01-06T20:26:44.137Z,97261.56
2023-01-06T20:29:13.031Z,97266.94
2023-01-06T20:31:40.586Z,97262.22
2023-01-06T20:34:08.028Z,97260.25
2023-01-06T20:36:35.478Z,97263.81
2023-01-06T20:39:03.015Z,97258.94
2023-01-06T20:41:30.525Z,97261.88
2023-01-06T20:43:58.006Z,97260.56
2023-01-06T20:46:26.861Z,97257.47
2023-01-06T20:48:54.467Z,97251.47
2023-01-06T20:51:21.939Z,97252.56
2023-01-06T20:53:49.476Z,97256.16
2023-01-06T20:56:16.984Z,97256.31
2023-01-06T20:58:44.462Z,97254.72
2023-01-06T21:01:12.042Z,97246.03
2023-01-06T21:03:41.129Z,97250.16
2023-01-06T21:06:09.265Z,97247.34
2023-01-06T21:08:36.859Z,97248.19
2023-01-06T21:11:04.383Z,97241.03
2023-01-06T21:13:31.915Z,97244.09
2023-01-06T21:15:59.492Z,97238.59
2023-01-06T21:18:27.014Z,97241.19
2023-01-06T21:20:56.135Z,97237.09
2023-01-06T21:23:23.649Z,97232.22
2023-01-06T21:25:51.173Z,97234.16
2023-01-06T21:28:18.707Z,97230.75
2023-01-06T21:30:46.296Z,97224.75
2023-01-06T21:33:14.310Z,97225.03
2023-01-06T21:35:41.939Z,97225.84
2023-01-06T21:38:10.869Z,97224.88
2023-01-06T21:40:38.392Z,97222.94
2023-01-06T21:43:11.193Z,97225.38
2023-01-06T21:45:39.148Z,97222.78
2023-01-06T21:48:07.937Z,97222.13
2023-01-06T21:50:38.997Z,97232.06
2023-01-06T21:53:08.021Z,97228.00
2023-01-06T21:55:37.389Z,97222.13
2023-01-06T21:58:05.051Z,97225.03
2023-01-06T22:00:32.731Z,97221.78
2023-01-06T22:03:01.033Z,97225.38
2023-01-06T22:05:29.236Z,97225.72
2023-01-06T22:07:57.015Z,97219.66
2023-01-06T22:10:26.493Z,97225.72
2023-01-06T22:12:59.119Z,97224.06
2023-01-06T22:15:28.350Z,97217.22
2023-01-06T22:18:11.419Z,97220.50
2023-01-06T22:20:57.802Z,97219.34
2023-01-06T22:23:29.464Z,97226.84
2023-01-06T22:25:57.068Z,97221.78
2023-01-06T22:28:27.986Z,97228.63
2023-01-06T22:30:55.698Z,97225.88
2023-01-06T22:33:23.229Z,97227.34
2023-01-06T22:35:50.977Z,97216.56
2023-01-06T22:38:18.498Z,97225.69
2023-01-06T22:40:47.699Z,97220.31
2023-01-06T22:43:15.772Z,97224.88
2023-01-06T22:45:44.928Z,97222.44
2023-01-06T22:48:12.520Z,97223.59
2023-01-06T22:50:40.092Z,97221.47
2023-01-06T22:53:07.797Z,97219.81
2023-01-06T22:55:35.340Z,97213.97
2023-01-06T22:58:02.890Z,97220.16
2023-01-06T23:00:30.679Z,97216.91
2023-01-06T23:02:59.592Z,97216.41
2023-01-06T23:05:27.233Z,97215.59
2023-01-06T23:07:54.752Z,97214.94
2023-01-06T23:10:22.510Z,97214.13
2023-01-06T23:12:52.367Z,97210.72
2023-01-06T23:15:19.920Z,97218.19
2023-01-06T23:17:47.479Z,97212.03
2023-01-06T23:20:16.472Z,97210.06
2023-01-06T23:22:44.153Z,97211.69
2023-01-06T23:25:11.959Z,97207.13
2023-01-06T23:27:39.620Z,97204.38
2023-01-06T23:30:08.461Z,97205.31
2023-01-06T23:32:36.018Z,97207.78
2023-01-06T23:35:03.783Z,97209.41
2023-01-06T23:37:33.597Z,97202.56
2023-01-06T23:40:01.199Z,97202.56
2023-01-06T23:42:30.280Z,97197.34
2023-01-06T23:44:58.170Z,97196.22
2023-01-06T23:47:25.759Z,97197.84
2023-01-06T23:49:53.387Z,97191.81
2023-01-06T23:52:20.949Z,97186.44
2023-01-06T23:54:49.954Z,97189.69
2023-01-06T23:57:17.517Z,97199.13
2023-01-06T23:59:45.370Z,97198.03
